Applegate, Oregon
Current Conditions -  °F | °C
As of 4:53 PM on Friday 28 Nov 2014 (Local Time) from KMFR Reporting Station
Overcast Overcast  
Wind Chill: 50°   Ceiling: 5500
Heat Index: 50°   Visibility: 10mi
Dew Point: 49°   Wind: 5mph
Humidity: 96%   Direction: 80°E
Pressure: 29.71"   Gusts: NA
Location:  42.1499°N, 123.043°W
Report Text: KMFR 290053Z 08004KT 10SM SCT044 BKN055 OVC080 10/09 A2971 RMK AO2 RAE48 SLP059 P0009 T01000094
Loading
Personal Weather Stations






























Interactive Weather Map New forecast layout! Learn more

10-Day Weather Forecast

Advertisements
Track Severe Weather on mobile